Airport View

Enter AWOS ICAO identifier for current METAR.

ex. KFNL

KGMJ 261135Z AUTO 00000KT 10SM CLR 19/17 A3007 RMK AO2

26 Jun 2019 11:48

Frequency: 119.025

Phone: 918-786-8350

Other Area AWOS: KSLG - KXNA - KVBT - KROG

TAF AMD KXNA 260959Z 2610/2706 VRB11KT P6SM VCTS SCT040CB BKN110 TEMPO 2610/2611 31015G25KT -TSRA SCT020 BKN040CB FM261200 VRB03KT P6SM SCT025 BKN250 TEMPO 2612/2615 BKN025 FM261500 21008KT P6SM BKN150 FM270100 VRB03KT P6SM SKC